Time;durP1;ratioP1;P1;durP2;ratioP2;P2;SDS_P1;SDS_P2;PMS_P1;PMS_P2;Temp;Humidity;BMP_temperature;BMP_pressure;BME280_temperature;BME280_humidity;BME280_pressure;Samples;Min_cycle;Max_cycle;Signal;HPM_P1;HPM_P2
2021/08/24 00:01:21;;;;;;;1.33;1.00;;;;;;;;;;6148732;23;20235;-60
2021/08/24 00:03:48;;;;;;;1.25;1.15;;;;;;;;;;6147672;23;20055;-60
2021/08/24 00:06:14;;;;;;;1.42;1.30;;;;;;;;;;6147808;23;20010;-60
2021/08/24 00:08:41;;;;;;;1.35;1.13;;;;;;;;;;6148064;23;20002;-60
2021/08/24 00:11:08;;;;;;;1.15;1.05;;;;;;;;;;6148208;23;20016;-60
2021/08/24 00:13:34;;;;;;;1.20;1.10;;;;;;;;;;6148135;23;20001;-60
2021/08/24 00:16:00;;;;;;;1.70;1.20;;;;;;;;;;6147731;23;20072;-60
2021/08/24 00:18:26;;;;;;;1.30;1.20;;;;;;;;;;6148385;23;20394;-60
2021/08/24 00:20:55;;;;;;;1.20;1.10;;;;;;;;;;6149063;23;20001;-60
2021/08/24 00:23:22;;;;;;;1.42;1.20;;;;;;;;;;6148767;23;20009;-60
2021/08/24 00:25:49;;;;;;;1.30;1.20;;;;;;;;;;6148526;23;20036;-61
2021/08/24 00:28:16;;;;;;;1.38;1.27;;;;;;;;;;6148192;23;20006;-60
2021/08/24 00:30:42;;;;;;;2.88;1.15;;;;;;;;;;6147434;23;20010;-61
2021/08/24 00:33:08;;;;;;;1.20;1.10;;;;;;;;;;6147933;23;20320;-60
2021/08/24 00:35:39;;;;;;;1.05;1.02;;;;;;;;;;6147878;23;20006;-60
2021/08/24 00:38:06;;;;;;;1.30;1.20;;;;;;;;;;6148492;23;20004;-60
2021/08/24 00:40:32;;;;;;;1.33;1.23;;;;;;;;;;6148226;23;20006;-60
2021/08/24 00:42:58;;;;;;;1.80;1.20;;;;;;;;;;6148043;23;20002;-60
2021/08/24 00:45:24;;;;;;;1.13;1.00;;;;;;;;;;6147384;23;20055;-60
2021/08/24 00:47:51;;;;;;;1.70;1.00;;;;;;;;;;6148965;23;20385;-61
2021/08/24 00:50:37;;;;;;;1.30;1.20;;;;;;;;;;6148112;23;20088;-60
2021/08/24 00:53:06;;;;;;;1.25;1.10;;;;;;;;;;6147806;23;20005;-60
2021/08/24 00:55:33;;;;;;;1.08;0.98;;;;;;;;;;6148028;23;20447;-60
2021/08/24 00:58:01;;;;;;;1.45;1.33;;;;;;;;;;6148380;23;20045;-61
2021/08/24 01:00:31;;;;;;;1.35;1.13;;;;;;;;;;6147485;23;19998;-60
2021/08/24 01:03:07;;;;;;;1.15;1.05;;;;;;;;;;6147461;23;20008;-60
2021/08/24 01:05:33;;;;;;;1.30;1.02;;;;;;;;;;6147891;23;20100;-60
2021/08/24 01:08:04;;;;;;;1.17;1.10;;;;;;;;;;6148386;23;20089;-60
2021/08/24 01:10:33;;;;;;;1.70;1.17;;;;;;;;;;6148142;23;20442;-60
2021/08/24 01:13:10;;;;;;;1.10;1.10;;;;;;;;;;6147911;23;20005;-60
2021/08/24 01:15:56;;;;;;;1.20;1.10;;;;;;;;;;6147092;23;20008;-60
2021/08/24 01:18:28;;;;;;;2.00;1.65;;;;;;;;;;6147702;23;20111;-60
2021/08/24 01:21:01;;;;;;;1.30;1.10;;;;;;;;;;6147748;23;20002;-60
2021/08/24 01:23:53;;;;;;;1.30;1.20;;;;;;;;;;6147957;23;20005;-60
2021/08/24 01:26:19;;;;;;;1.92;1.23;;;;;;;;;;6143687;23;20009;-60
2021/08/24 01:29:01;;;;;;;1.20;1.10;;;;;;;;;;6147385;23;20450;-60
2021/08/24 01:31:27;;;;;;;1.48;1.30;;;;;;;;;;6148058;23;20088;-60
2021/08/24 01:34:02;;;;;;;1.25;1.15;;;;;;;;;;6147113;23;20339;-60
2021/08/24 01:36:32;;;;;;;1.23;1.13;;;;;;;;;;6147852;23;20061;-60
2021/08/24 01:39:08;;;;;;;1.25;1.15;;;;;;;;;;6147743;23;20037;-60
2021/08/24 01:41:51;;;;;;;1.50;1.13;;;;;;;;;;6147879;23;20106;-60
2021/08/24 01:44:21;;;;;;;1.13;1.02;;;;;;;;;;6147569;23;20005;-60
2021/08/24 01:46:54;;;;;;;1.48;1.33;;;;;;;;;;6147748;23;20080;-60
2021/08/24 01:49:21;;;;;;;1.55;1.45;;;;;;;;;;6148285;23;20029;-60
2021/08/24 01:51:50;;;;;;;1.55;1.05;;;;;;;;;;6147693;23;20016;-60
2021/08/24 01:54:22;;;;;;;1.17;1.08;;;;;;;;;;6147961;23;20001;-60
2021/08/24 01:56:48;;;;;;;1.30;1.20;;;;;;;;;;6147890;23;20006;-61
2021/08/24 01:59:21;;;;;;;1.35;1.20;;;;;;;;;;6147305;23;20004;-60
2021/08/24 02:01:50;;;;;;;1.10;1.00;;;;;;;;;;6148222;23;19997;-60
2021/08/24 02:04:19;;;;;;;1.33;1.20;;;;;;;;;;6149646;23;20008;-61
2021/08/24 02:06:46;;;;;;;1.20;1.10;;;;;;;;;;6149762;23;20081;-60
2021/08/24 02:09:25;;;;;;;1.20;1.10;;;;;;;;;;6149519;23;20032;-60
2021/08/24 02:11:52;;;;;;;0.90;0.90;;;;;;;;;;6150194;23;20517;-60
2021/08/24 02:14:18;;;;;;;1.25;1.13;;;;;;;;;;6150408;23;20055;-60
2021/08/24 02:16:46;;;;;;;1.42;1.30;;;;;;;;;;6149780;23;20025;-60
2021/08/24 02:19:14;;;;;;;1.20;1.10;;;;;;;;;;6123036;23;20005;-60
2021/08/24 02:21:43;;;;;;;1.48;1.20;;;;;;;;;;6149358;23;20013;-61
2021/08/24 02:24:13;;;;;;;1.50;0.95;;;;;;;;;;6149270;23;20058;-60
2021/08/24 02:26:39;;;;;;;1.45;1.30;;;;;;;;;;6149177;23;20012;-60
2021/08/24 02:29:05;;;;;;;1.20;1.10;;;;;;;;;;6148900;23;20085;-60
2021/08/24 02:31:44;;;;;;;1.45;1.17;;;;;;;;;;6149748;23;20005;-60
2021/08/24 02:34:10;;;;;;;1.30;1.20;;;;;;;;;;6148801;23;20040;-60
2021/08/24 02:36:38;;;;;;;1.20;1.10;;;;;;;;;;6149537;23;20005;-60
2021/08/24 02:39:06;;;;;;;1.00;1.00;;;;;;;;;;6148653;23;20008;-60
2021/08/24 02:41:36;;;;;;;1.67;1.15;;;;;;;;;;6149052;23;20458;-60
2021/08/24 02:44:02;;;;;;;1.17;1.08;;;;;;;;;;6148739;23;20013;-60
2021/08/24 02:46:30;;;;;;;1.27;1.20;;;;;;;;;;6149531;23;20488;-60
2021/08/24 02:49:00;;;;;;;1.30;1.20;;;;;;;;;;6148696;23;20080;-60
2021/08/24 02:51:28;;;;;;;1.63;1.30;;;;;;;;;;6149111;23;20002;-60
2021/08/24 02:53:58;;;;;;;1.50;1.40;;;;;;;;;;6149244;23;20011;-60
2021/08/24 02:56:24;;;;;;;1.40;1.30;;;;;;;;;;6149109;23;20069;-60
2021/08/24 02:58:50;;;;;;;1.33;1.10;;;;;;;;;;6149319;23;20072;-60
2021/08/24 03:01:16;;;;;;;1.13;1.08;;;;;;;;;;6149332;23;20416;-60
2021/08/24 03:03:42;;;;;;;1.20;1.10;;;;;;;;;;6149308;23;20363;-60
2021/08/24 03:06:08;;;;;;;1.10;1.00;;;;;;;;;;6149095;23;20029;-60
2021/08/24 03:08:34;;;;;;;0.93;0.93;;;;;;;;;;6148967;23;20558;-60
2021/08/24 03:11:01;;;;;;;1.63;1.13;;;;;;;;;;6148791;23;19997;-60
2021/08/24 03:13:38;;;;;;;1.10;1.00;;;;;;;;;;6149114;23;20005;-60
2021/08/24 03:16:20;;;;;;;1.98;1.40;;;;;;;;;;6149131;23;20029;-60
2021/08/24 03:19:06;;;;;;;1.20;1.10;;;;;;;;;;6148796;23;20002;-60
2021/08/24 03:21:35;;;;;;;1.52;1.30;;;;;;;;;;6149080;23;20005;-60
2021/08/24 03:24:03;;;;;;;1.08;0.95;;;;;;;;;;6148902;23;20355;-60
2021/08/24 03:26:30;;;;;;;1.45;1.15;;;;;;;;;;6148864;23;20061;-60
2021/08/24 03:28:56;;;;;;;1.27;1.13;;;;;;;;;;6147986;23;20084;-60
2021/08/24 03:31:25;;;;;;;0.80;0.80;;;;;;;;;;6149718;23;20009;-60
2021/08/24 03:33:51;;;;;;;1.35;1.25;;;;;;;;;;6149030;23;20016;-60
2021/08/24 03:36:17;;;;;;;1.80;1.30;;;;;;;;;;6149026;23;19998;-60
2021/08/24 03:38:43;;;;;;;1.50;1.30;;;;;;;;;;6147877;23;20214;-60
2021/08/24 03:41:10;;;;;;;1.40;1.30;;;;;;;;;;6148750;23;20073;-60
2021/08/24 03:43:36;;;;;;;1.58;1.10;;;;;;;;;;6148692;23;20005;-60
2021/08/24 03:46:03;;;;;;;1.67;1.58;;;;;;;;;;6148915;23;20009;-60
2021/08/24 03:48:29;;;;;;;1.25;1.15;;;;;;;;;;6147854;23;20001;-60
2021/08/24 03:50:55;;;;;;;0.90;0.90;;;;;;;;;;6148592;23;20104;-60
2021/08/24 03:53:21;;;;;;;1.63;1.52;;;;;;;;;;6149420;23;20117;-61
2021/08/24 03:55:47;;;;;;;1.33;1.02;;;;;;;;;;6148719;23;20009;-60
2021/08/24 03:58:14;;;;;;;1.20;1.10;;;;;;;;;;6147788;23;20012;-60
2021/08/24 04:00:46;;;;;;;1.10;0.93;;;;;;;;;;6148189;23;20001;-60
2021/08/24 04:03:12;;;;;;;0.90;0.90;;;;;;;;;;6148658;23;20006;-60
2021/08/24 04:05:39;;;;;;;1.77;1.33;;;;;;;;;;6148898;23;20010;-60
2021/08/24 04:08:05;;;;;;;1.30;0.98;;;;;;;;;;6148429;23;20005;-60
2021/08/24 04:10:31;;;;;;;1.75;1.40;;;;;;;;;;6148271;23;20001;-61
2021/08/24 04:12:57;;;;;;;1.20;1.10;;;;;;;;;;6148184;23;20010;-60
2021/08/24 04:15:23;;;;;;;1.30;1.20;;;;;;;;;;6148693;23;20465;-60
2021/08/24 04:17:49;;;;;;;1.50;1.40;;;;;;;;;;6149526;23;20581;-60
2021/08/24 04:20:15;;;;;;;1.35;1.17;;;;;;;;;;6148245;23;20366;-60
2021/08/24 04:22:42;;;;;;;2.05;1.20;;;;;;;;;;6148533;23;19998;-60
2021/08/24 04:25:10;;;;;;;1.63;1.20;;;;;;;;;;6148449;23;20401;-60
2021/08/24 04:27:36;;;;;;;1.30;1.20;;;;;;;;;;6146217;23;20451;-60
2021/08/24 04:30:02;;;;;;;1.42;1.20;;;;;;;;;;6148482;23;20005;-60
2021/08/24 04:32:29;;;;;;;1.17;1.08;;;;;;;;;;6147749;23;20013;-61
2021/08/24 04:34:56;;;;;;;1.92;1.30;;;;;;;;;;6148179;23;20393;-60
2021/08/24 04:37:23;;;;;;;1.38;1.27;;;;;;;;;;6147609;23;20005;-60
2021/08/24 04:39:49;;;;;;;1.50;1.40;;;;;;;;;;6147989;23;20133;-61
2021/08/24 04:42:15;;;;;;;1.48;1.30;;;;;;;;;;6147446;23;20305;-60
2021/08/24 04:44:41;;;;;;;1.67;1.20;;;;;;;;;;6147982;23;20084;-61
2021/08/24 04:47:07;;;;;;;1.42;1.33;;;;;;;;;;6148250;23;20001;-60
2021/08/24 04:49:33;;;;;;;1.80;1.42;;;;;;;;;;6147604;23;20013;-60
2021/08/24 04:52:00;;;;;;;1.30;1.20;;;;;;;;;;6147905;23;20064;-60
2021/08/24 04:54:33;;;;;;;1.42;1.27;;;;;;;;;;6149149;23;20033;-61
2021/08/24 04:56:59;;;;;;;1.40;1.30;;;;;;;;;;6147855;23;20072;-60
2021/08/24 04:59:25;;;;;;;1.35;1.25;;;;;;;;;;6148131;23;20060;-61
2021/08/24 05:01:51;;;;;;;1.50;1.40;;;;;;;;;;6147914;23;20461;-61
2021/08/24 05:04:17;;;;;;;1.05;1.05;;;;;;;;;;6148085;23;20617;-60
2021/08/24 05:06:43;;;;;;;1.40;1.30;;;;;;;;;;6147572;23;20045;-61
2021/08/24 05:09:09;;;;;;;1.25;1.15;;;;;;;;;;6148037;23;20084;-60
2021/08/24 05:11:35;;;;;;;1.48;1.30;;;;;;;;;;6147880;23;20460;-61
2021/08/24 05:14:01;;;;;;;1.55;1.45;;;;;;;;;;6147963;23;20563;-60
2021/08/24 05:16:28;;;;;;;1.33;1.23;;;;;;;;;;6148801;23;20008;-60
2021/08/24 05:18:54;;;;;;;1.35;1.25;;;;;;;;;;6148351;23;20009;-60
2021/08/24 05:21:20;;;;;;;1.52;1.42;;;;;;;;;;6147545;23;20073;-60
2021/08/24 05:23:46;;;;;;;1.42;1.17;;;;;;;;;;6148050;23;20002;-60
2021/08/24 05:26:15;;;;;;;1.30;1.15;;;;;;;;;;6148042;23;20658;-60
2021/08/24 05:28:42;;;;;;;1.50;1.40;;;;;;;;;;6147774;23;20001;-60
2021/08/24 05:31:08;;;;;;;1.58;1.45;;;;;;;;;;6147605;23;20465;-60
2021/08/24 05:33:34;;;;;;;1.27;1.17;;;;;;;;;;6147058;23;20145;-60
2021/08/24 05:36:00;;;;;;;1.30;1.20;;;;;;;;;;6147807;23;20041;-61
2021/08/24 05:38:30;;;;;;;1.63;1.30;;;;;;;;;;6150215;23;20002;-61
2021/08/24 05:40:56;;;;;;;1.25;1.15;;;;;;;;;;6150225;23;20025;-60
2021/08/24 05:43:23;;;;;;;1.17;1.08;;;;;;;;;;6149600;23;20084;-61
2021/08/24 05:46:01;;;;;;;1.10;1.00;;;;;;;;;;6150003;23;20005;-60
2021/08/24 05:48:27;;;;;;;1.50;1.40;;;;;;;;;;6150343;23;20001;-60
2021/08/24 05:50:53;;;;;;;1.20;1.10;;;;;;;;;;6149604;23;20041;-60
2021/08/24 05:53:19;;;;;;;1.30;1.20;;;;;;;;;;6149600;23;20322;-60
2021/08/24 05:55:46;;;;;;;1.88;1.30;;;;;;;;;;6149631;23;20371;-60
2021/08/24 05:58:12;;;;;;;1.63;1.15;;;;;;;;;;6148200;23;19997;-60
2021/08/24 06:00:38;;;;;;;1.60;1.38;;;;;;;;;;6148994;23;20076;-61
2021/08/24 06:03:05;;;;;;;1.58;1.33;;;;;;;;;;6123027;23;20370;-60
2021/08/24 06:05:31;;;;;;;1.92;1.30;;;;;;;;;;6149262;23;20044;-60
2021/08/24 06:07:57;;;;;;;1.42;1.30;;;;;;;;;;6150103;23;20312;-60
2021/08/24 06:10:23;;;;;;;1.42;1.33;;;;;;;;;;6149609;23;20009;-61
2021/08/24 06:12:49;;;;;;;1.08;1.00;;;;;;;;;;6149062;23;20016;-61
2021/08/24 06:15:15;;;;;;;1.65;1.50;;;;;;;;;;6149174;23;20001;-61
2021/08/24 06:17:46;;;;;;;1.38;1.27;;;;;;;;;;6149076;23;19997;-60
2021/08/24 06:20:12;;;;;;;1.52;1.42;;;;;;;;;;6149698;23;20375;-60
2021/08/24 06:22:38;;;;;;;1.33;1.23;;;;;;;;;;6149313;23;20101;-60
2021/08/24 06:25:04;;;;;;;1.20;1.10;;;;;;;;;;6149102;23;20388;-60
2021/08/24 06:27:30;;;;;;;1.20;1.10;;;;;;;;;;6149471;23;20008;-60
2021/08/24 06:29:56;;;;;;;1.90;1.30;;;;;;;;;;6148623;23;20002;-60
2021/08/24 06:32:28;;;;;;;1.40;1.30;;;;;;;;;;6148558;23;20458;-61
2021/08/24 06:34:54;;;;;;;0.93;0.93;;;;;;;;;;6148703;23;20005;-60
2021/08/24 06:37:20;;;;;;;1.63;1.30;;;;;;;;;;6149185;23;20308;-60
2021/08/24 06:39:46;;;;;;;3.00;1.40;;;;;;;;;;6149048;23;20338;-61
2021/08/24 06:42:13;;;;;;;1.20;1.10;;;;;;;;;;6149031;23;20005;-60
2021/08/24 06:44:39;;;;;;;1.30;1.20;;;;;;;;;;6149629;23;20376;-60
2021/08/24 06:47:05;;;;;;;1.30;1.20;;;;;;;;;;6148640;23;20016;-60
2021/08/24 06:49:31;;;;;;;1.67;1.50;;;;;;;;;;6148944;23;20006;-60
2021/08/24 06:51:59;;;;;;;1.38;1.20;;;;;;;;;;6148753;23;20010;-59
2021/08/24 06:54:25;;;;;;;2.03;1.33;;;;;;;;;;6147902;23;20025;-59
2021/08/24 06:56:51;;;;;;;1.52;1.27;;;;;;;;;;6149961;23;20017;-59
2021/08/24 06:59:17;;;;;;;3.70;1.25;;;;;;;;;;6149220;23;20415;-60
2021/08/24 07:01:45;;;;;;;1.50;1.40;;;;;;;;;;6145488;23;20482;-59
2021/08/24 07:04:11;;;;;;;2.45;1.65;;;;;;;;;;6147336;23;20029;-60
2021/08/24 07:06:39;;;;;;;2.33;1.30;;;;;;;;;;6147955;23;20343;-60
2021/08/24 07:09:05;;;;;;;1.30;1.20;;;;;;;;;;6120165;23;20013;-60
2021/08/24 07:11:31;;;;;;;1.50;1.40;;;;;;;;;;6147391;23;20010;-60
2021/08/24 07:13:58;;;;;;;1.52;1.40;;;;;;;;;;6147314;23;20001;-60
2021/08/24 07:16:25;;;;;;;1.35;1.20;;;;;;;;;;6148023;23;20073;-60
2021/08/24 07:18:52;;;;;;;1.35;1.25;;;;;;;;;;6147777;23;20095;-60
2021/08/24 07:21:19;;;;;;;1.48;1.38;;;;;;;;;;6147998;23;20017;-60
2021/08/24 07:23:46;;;;;;;1.40;1.30;;;;;;;;;;6149079;23;20002;-60
2021/08/24 07:26:13;;;;;;;2.10;1.55;;;;;;;;;;6149262;23;20441;-60
2021/08/24 07:28:39;;;;;;;1.75;1.42;;;;;;;;;;6149753;23;20035;-59
2021/08/24 07:31:05;;;;;;;1.27;1.15;;;;;;;;;;6149395;23;20001;-60
2021/08/24 07:33:31;;;;;;;1.30;1.20;;;;;;;;;;6146060;23;20064;-60
2021/08/24 07:35:58;;;;;;;1.20;1.10;;;;;;;;;;6149046;23;20001;-60
2021/08/24 07:38:25;;;;;;;1.30;1.20;;;;;;;;;;6148466;23;20002;-60
2021/08/24 07:40:51;;;;;;;1.30;1.20;;;;;;;;;;6148814;23;20002;-60
2021/08/24 07:43:17;;;;;;;1.42;1.33;;;;;;;;;;6148766;23;20001;-59
2021/08/24 07:45:45;;;;;;;1.40;1.30;;;;;;;;;;6149489;23;20040;-59
2021/08/24 07:48:11;;;;;;;1.17;1.00;;;;;;;;;;6149131;23;20008;-59
2021/08/24 07:50:38;;;;;;;1.27;1.17;;;;;;;;;;6148967;23;20386;-59
2021/08/24 07:53:04;;;;;;;1.48;1.20;;;;;;;;;;6149113;23;20071;-60
2021/08/24 07:55:30;;;;;;;1.20;1.10;;;;;;;;;;6148044;23;20586;-59
2021/08/24 07:57:56;;;;;;;1.42;1.33;;;;;;;;;;6149048;23;19997;-59
2021/08/24 08:00:23;;;;;;;1.75;1.27;;;;;;;;;;6148435;23;20057;-60
2021/08/24 08:02:49;;;;;;;1.48;1.20;;;;;;;;;;6147891;23;20005;-60
2021/08/24 08:05:17;;;;;;;1.38;1.27;;;;;;;;;;6121406;23;20088;-59
2021/08/24 08:07:43;;;;;;;1.33;1.13;;;;;;;;;;6147130;23;20138;-59
2021/08/24 08:10:09;;;;;;;1.58;1.48;;;;;;;;;;6149122;23;20393;-60
2021/08/24 08:12:35;;;;;;;1.20;1.10;;;;;;;;;;6148343;23;20002;-60
2021/08/24 08:15:01;;;;;;;1.23;1.13;;;;;;;;;;6147025;23;20013;-60
2021/08/24 08:17:27;;;;;;;0.95;0.95;;;;;;;;;;6120358;23;20002;-60
2021/08/24 08:19:54;;;;;;;1.00;1.00;;;;;;;;;;6147593;23;20080;-60
2021/08/24 08:22:20;;;;;;;1.40;1.20;;;;;;;;;;6143123;23;20002;-60
2021/08/24 08:24:47;;;;;;;1.20;1.10;;;;;;;;;;6147129;23;20098;-60
2021/08/24 08:27:13;;;;;;;1.23;1.10;;;;;;;;;;6147678;23;20020;-60
2021/08/24 08:29:39;;;;;;;1.80;1.17;;;;;;;;;;6122426;23;20005;-60
2021/08/24 08:32:09;;;;;;;1.20;1.10;;;;;;;;;;6147405;23;20154;-60
2021/08/24 08:34:35;;;;;;;1.60;1.33;;;;;;;;;;6146742;23;20005;-60
2021/08/24 08:37:01;;;;;;;1.00;1.00;;;;;;;;;;6147205;23;20008;-60
2021/08/24 08:39:27;;;;;;;1.20;1.10;;;;;;;;;;6147484;23;20080;-60
2021/08/24 08:42:18;;;;;;;1.20;1.10;;;;;;;;;;6147195;23;20040;-60
2021/08/24 08:44:52;;;;;;;1.15;1.05;;;;;;;;;;6147256;23;20020;-60
2021/08/24 08:47:33;;;;;;;1.25;1.15;;;;;;;;;;6147177;23;20002;-60
2021/08/24 08:50:06;;;;;;;1.35;1.25;;;;;;;;;;6146575;23;20009;-60
2021/08/24 08:52:35;;;;;;;1.17;1.08;;;;;;;;;;6146634;23;20020;-60
2021/08/24 08:55:15;;;;;;;1.02;1.00;;;;;;;;;;6146768;23;20012;-60
2021/08/24 08:57:46;;;;;;;1.23;1.10;;;;;;;;;;6120461;23;20271;-61
2021/08/24 09:00:18;;;;;;;1.13;1.05;;;;;;;;;;6147514;23;20398;-60
2021/08/24 09:02:49;;;;;;;1.02;0.98;;;;;;;;;;6146037;23;20016;-60
2021/08/24 09:05:16;;;;;;;1.13;1.02;;;;;;;;;;6146693;23;20012;-60
2021/08/24 09:07:45;;;;;;;1.30;1.20;;;;;;;;;;6147155;23;20013;-60
2021/08/24 09:10:14;;;;;;;1.10;1.00;;;;;;;;;;6146847;23;20037;-60
2021/08/24 09:12:44;;;;;;;1.38;1.00;;;;;;;;;;6148904;23;20002;-60
2021/08/24 09:15:14;;;;;;;1.10;1.00;;;;;;;;;;6149459;23;20009;-60
2021/08/24 09:17:41;;;;;;;1.25;1.00;;;;;;;;;;6148963;23;19998;-60
2021/08/24 09:20:20;;;;;;;0.90;0.90;;;;;;;;;;6148371;23;20001;-60
2021/08/24 09:22:46;;;;;;;0.98;0.80;;;;;;;;;;6147906;23;20006;-60
2021/08/24 09:25:15;;;;;;;2.40;1.10;;;;;;;;;;6148878;23;20410;-60
2021/08/24 09:27:53;;;;;;;0.90;0.90;;;;;;;;;;6148893;23;20040;-60
2021/08/24 09:30:20;;;;;;;0.80;0.80;;;;;;;;;;6148569;23;20288;-60
2021/08/24 09:32:47;;;;;;;1.10;1.00;;;;;;;;;;6147533;23;20064;-60
2021/08/24 09:35:27;;;;;;;0.88;0.85;;;;;;;;;;6148560;23;20581;-61
2021/08/24 09:37:53;;;;;;;2.10;1.10;;;;;;;;;;6147982;23;20012;-61
2021/08/24 09:40:55;;;;;;;1.50;1.38;;;;;;;;;;6147897;23;20091;-60
2021/08/24 09:43:32;;;;;;;1.15;1.05;;;;;;;;;;6028779;23;20078;-60
2021/08/24 09:46:03;;;;;;;2.00;1.20;;;;;;;;;;6132662;23;20010;-60
2021/08/24 09:48:32;;;;;;;1.73;1.42;;;;;;;;;;6147725;23;20002;-60
2021/08/24 09:51:19;;;;;;;1.30;1.20;;;;;;;;;;6147931;23;20002;-60
2021/08/24 09:53:45;;;;;;;1.23;1.13;;;;;;;;;;6147276;23;20006;-60
2021/08/24 09:56:13;;;;;;;1.55;1.35;;;;;;;;;;6148512;23;20082;-60
2021/08/24 09:58:46;;;;;;;1.70;1.40;;;;;;;;;;6146712;23;20063;-62
2021/08/24 10:01:16;;;;;;;1.48;1.38;;;;;;;;;;6148695;23;20040;-61
2021/08/24 10:03:44;;;;;;;1.20;1.00;;;;;;;;;;6148456;23;20097;-61
2021/08/24 10:06:27;;;;;;;2.30;1.48;;;;;;;;;;6148632;23;20024;-61
2021/08/24 10:08:57;;;;;;;1.63;1.52;;;;;;;;;;6147377;23;20340;-61
2021/08/24 10:11:26;;;;;;;2.95;1.58;;;;;;;;;;6147656;23;20020;-62
2021/08/24 10:13:52;;;;;;;2.15;1.58;;;;;;;;;;6147102;23;20021;-61
2021/08/24 10:16:24;;;;;;;1.77;1.60;;;;;;;;;;6147931;23;20006;-61
2021/08/24 10:19:06;;;;;;;2.00;1.60;;;;;;;;;;6147658;23;20515;-61
2021/08/24 10:21:41;;;;;;;1.88;1.30;;;;;;;;;;6146348;23;20006;-66
2021/08/24 10:24:08;;;;;;;1.83;1.45;;;;;;;;;;6147752;23;20001;-68
2021/08/24 10:26:36;;;;;;;2.42;1.70;;;;;;;;;;6148848;23;20044;-66
2021/08/24 10:29:06;;;;;;;1.52;1.40;;;;;;;;;;6149044;23;20060;-70
2021/08/24 10:31:38;;;;;;;1.52;1.30;;;;;;;;;;6149254;23;19997;-64
2021/08/24 10:34:06;;;;;;;1.20;1.10;;;;;;;;;;6148438;23;20139;-64
2021/08/24 10:36:33;;;;;;;1.73;1.58;;;;;;;;;;6148614;23;20024;-65
2021/08/24 10:38:59;;;;;;;1.42;1.33;;;;;;;;;;6147009;23;20005;-64
2021/08/24 10:41:30;;;;;;;1.92;1.40;;;;;;;;;;6146907;23;20002;-63
2021/08/24 10:43:59;;;;;;;1.88;1.70;;;;;;;;;;6147721;23;20002;-63
2021/08/24 10:46:26;;;;;;;1.30;1.20;;;;;;;;;;6146700;23;20509;-63
2021/08/24 10:48:52;;;;;;;1.23;1.10;;;;;;;;;;6146996;23;20320;-64
2021/08/24 10:51:21;;;;;;;1.00;0.95;;;;;;;;;;6147394;23;20346;-63
2021/08/24 10:53:59;;;;;;;1.48;1.10;;;;;;;;;;6146798;23;20076;-64
2021/08/24 10:56:31;;;;;;;1.20;1.10;;;;;;;;;;6149177;23;20080;-64
2021/08/24 10:59:00;;;;;;;1.30;1.00;;;;;;;;;;6147931;23;20002;-64
2021/08/24 11:01:27;;;;;;;1.10;1.00;;;;;;;;;;6148607;23;20085;-63
2021/08/24 11:04:16;;;;;;;0.88;0.88;;;;;;;;;;6148843;23;20348;-64
2021/08/24 11:06:53;;;;;;;1.45;1.00;;;;;;;;;;6095069;23;20032;-63
2021/08/24 11:09:20;;;;;;;1.45;1.00;;;;;;;;;;6148490;23;20005;-64
2021/08/24 11:11:46;;;;;;;1.40;1.30;;;;;;;;;;6148452;23;20439;-64
2021/08/24 11:14:15;;;;;;;1.02;0.93;;;;;;;;;;6149269;23;20032;-64
2021/08/24 11:16:45;;;;;;;1.13;1.00;;;;;;;;;;6149399;23;20005;-63
2021/08/24 11:19:19;;;;;;;1.10;1.00;;;;;;;;;;6149487;23;20670;-63
2021/08/24 11:21:45;;;;;;;1.27;1.17;;;;;;;;;;6148439;23;20060;-64
2021/08/24 11:24:11;;;;;;;0.80;0.80;;;;;;;;;;6148814;23;20728;-63
2021/08/24 11:27:03;;;;;;;0.85;0.85;;;;;;;;;;6147692;23;20002;-64
2021/08/24 11:29:34;;;;;;;1.30;1.17;;;;;;;;;;6103308;23;20005;-64
2021/08/24 11:32:24;;;;;;;0.60;0.60;;;;;;;;;;6148343;23;20004;-65
2021/08/24 11:34:50;;;;;;;0.95;0.80;;;;;;;;;;6132039;23;20048;-62
2021/08/24 11:37:25;;;;;;;0.85;0.85;;;;;;;;;;6148508;23;20005;-64
2021/08/24 11:39:57;;;;;;;0.90;0.90;;;;;;;;;;6148700;23;19997;-64
2021/08/24 11:42:29;;;;;;;1.23;1.10;;;;;;;;;;6148586;23;20066;-64
2021/08/24 11:44:57;;;;;;;0.80;0.80;;;;;;;;;;6147831;23;20435;-64
2021/08/24 11:47:32;;;;;;;0.90;0.90;;;;;;;;;;6147641;23;20371;-64
2021/08/24 11:50:02;;;;;;;0.70;0.70;;;;;;;;;;6147689;23;20016;-63
2021/08/24 11:52:49;;;;;;;0.70;0.70;;;;;;;;;;6148377;23;20466;-64
2021/08/24 11:55:28;;;;;;;0.82;0.82;;;;;;;;;;6149161;23;20135;-64
2021/08/24 11:57:59;;;;;;;0.77;0.75;;;;;;;;;;6148028;23;20080;-64
2021/08/24 12:00:25;;;;;;;0.70;0.70;;;;;;;;;;6148558;23;20006;-63
2021/08/24 12:02:52;;;;;;;0.60;0.60;;;;;;;;;;6149346;23;20001;-63
2021/08/24 12:05:22;;;;;;;0.70;0.70;;;;;;;;;;6146915;23;20021;-64
2021/08/24 12:07:56;;;;;;;1.05;0.95;;;;;;;;;;6148374;23;20013;-63
2021/08/24 12:10:54;;;;;;;0.73;0.73;;;;;;;;;;6149185;23;20555;-64
2021/08/24 12:13:31;;;;;;;1.45;0.93;;;;;;;;;;6148996;23;20002;-63
2021/08/24 12:16:17;;;;;;;1.35;1.23;;;;;;;;;;6148628;23;20114;-63
2021/08/24 12:18:44;;;;;;;1.08;0.98;;;;;;;;;;6149027;23;20013;-63
2021/08/24 12:21:29;;;;;;;0.90;0.90;;;;;;;;;;6145347;23;20002;-64
2021/08/24 12:23:56;;;;;;;1.15;1.00;;;;;;;;;;6149612;23;20032;-63
2021/08/24 12:26:22;;;;;;;0.70;0.70;;;;;;;;;;6148403;23;20035;-63
2021/08/24 12:28:48;;;;;;;1.00;0.93;;;;;;;;;;6147669;23;20001;-63
2021/08/24 12:31:44;;;;;;;0.88;0.88;;;;;;;;;;6147825;23;20009;-63
2021/08/24 12:34:28;;;;;;;0.82;0.70;;;;;;;;;;6043693;23;20354;-62
2021/08/24 12:36:54;;;;;;;0.95;0.85;;;;;;;;;;6147969;23;20083;-65
2021/08/24 12:39:35;;;;;;;0.70;0.70;;;;;;;;;;6148399;23;20009;-63
2021/08/24 12:42:09;;;;;;;1.20;0.98;;;;;;;;;;6148545;23;20082;-65
2021/08/24 12:44:45;;;;;;;1.08;0.98;;;;;;;;;;6149022;23;20005;-64
2021/08/24 12:47:32;;;;;;;1.10;1.00;;;;;;;;;;6149816;23;20077;-64
2021/08/24 12:50:18;;;;;;;1.13;1.02;;;;;;;;;;6148694;23;20012;-63
2021/08/24 12:52:51;;;;;;;0.85;0.80;;;;;;;;;;6149458;23;20009;-63
2021/08/24 12:55:34;;;;;;;1.92;1.05;;;;;;;;;;6148907;23;20006;-64
2021/08/24 12:58:06;;;;;;;1.30;1.20;;;;;;;;;;6147762;23;20376;-64
2021/08/24 13:00:36;;;;;;;0.80;0.80;;;;;;;;;;6149292;23;20009;-64
2021/08/24 13:03:05;;;;;;;0.75;0.75;;;;;;;;;;6148969;23;20002;-63
2021/08/24 13:05:34;;;;;;;1.00;0.80;;;;;;;;;;6148604;23;20013;-63
2021/08/24 13:08:06;;;;;;;1.33;1.10;;;;;;;;;;6147802;23;20010;-64
2021/08/24 13:10:34;;;;;;;1.02;0.95;;;;;;;;;;6149224;23;20363;-64
2021/08/24 13:13:02;;;;;;;0.70;0.70;;;;;;;;;;6147126;23;20373;-63
2021/08/24 13:15:28;;;;;;;0.80;0.77;;;;;;;;;;6147809;23;20013;-63
2021/08/24 13:18:00;;;;;;;0.80;0.80;;;;;;;;;;6147733;23;20005;-63
2021/08/24 13:20:29;;;;;;;0.95;0.73;;;;;;;;;;6121280;23;20343;-65
2021/08/24 13:22:59;;;;;;;0.80;0.80;;;;;;;;;;6147885;23;20072;-63
2021/08/24 13:25:28;;;;;;;0.82;0.82;;;;;;;;;;6148128;23;20006;-65
2021/08/24 13:27:59;;;;;;;0.98;0.90;;;;;;;;;;6148046;23;20006;-64
2021/08/24 13:30:26;;;;;;;0.80;0.80;;;;;;;;;;6147692;23;20005;-64
2021/08/24 13:32:55;;;;;;;0.85;0.85;;;;;;;;;;6147586;23;20010;-63
2021/08/24 13:35:44;;;;;;;0.90;0.90;;;;;;;;;;6147315;23;20010;-63
2021/08/24 13:38:11;;;;;;;3.30;0.95;;;;;;;;;;6132813;23;20005;-64
2021/08/24 13:40:37;;;;;;;0.90;0.90;;;;;;;;;;6147985;23;20001;-63
2021/08/24 13:43:03;;;;;;;0.98;0.80;;;;;;;;;;6148147;23;20125;-64
2021/08/24 13:45:34;;;;;;;0.52;0.52;;;;;;;;;;6147698;23;20005;-63
2021/08/24 13:48:01;;;;;;;1.30;0.90;;;;;;;;;;6147864;23;20006;-63
2021/08/24 13:50:32;;;;;;;0.75;0.70;;;;;;;;;;6147830;23;20005;-63
2021/08/24 13:52:59;;;;;;;0.80;0.80;;;;;;;;;;6147842;23;20010;-63
2021/08/24 13:55:30;;;;;;;0.80;0.80;;;;;;;;;;6147522;23;20005;-63
2021/08/24 13:58:12;;;;;;;1.00;0.70;;;;;;;;;;6122401;23;20029;-63
2021/08/24 14:00:39;;;;;;;0.70;0.70;;;;;;;;;;6149681;23;20128;-63
2021/08/24 14:03:10;;;;;;;0.80;0.80;;;;;;;;;;6149770;23;20612;-63
2021/08/24 14:05:36;;;;;;;0.90;0.70;;;;;;;;;;6149232;23;20339;-63
2021/08/24 14:08:02;;;;;;;1.00;0.90;;;;;;;;;;6149578;23;20002;-63
2021/08/24 14:10:30;;;;;;;0.80;0.70;;;;;;;;;;6148847;23;20005;-63
2021/08/24 14:12:58;;;;;;;0.70;0.70;;;;;;;;;;6149384;23;20002;-63
2021/08/24 14:15:27;;;;;;;0.63;0.63;;;;;;;;;;6149323;23;20073;-63
2021/08/24 14:18:02;;;;;;;0.70;0.70;;;;;;;;;;6149768;23;20097;-63
2021/08/24 14:20:34;;;;;;;0.60;0.60;;;;;;;;;;6149276;23;20466;-63
2021/08/24 14:23:05;;;;;;;0.75;0.75;;;;;;;;;;6149466;23;20010;-63
2021/08/24 14:25:36;;;;;;;0.40;0.40;;;;;;;;;;6150029;23;20084;-63
2021/08/24 14:28:11;;;;;;;0.75;0.60;;;;;;;;;;6149469;23;20010;-63
2021/08/24 14:30:38;;;;;;;0.63;0.63;;;;;;;;;;6149113;23;20017;-63
2021/08/24 14:33:16;;;;;;;1.13;0.90;;;;;;;;;;6147893;23;20005;-63
2021/08/24 14:35:46;;;;;;;0.93;0.70;;;;;;;;;;6150633;23;20010;-63
2021/08/24 14:38:25;;;;;;;0.90;0.70;;;;;;;;;;6148968;23;20084;-63
2021/08/24 14:40:51;;;;;;;0.80;0.80;;;;;;;;;;6149275;23;19998;-63
2021/08/24 14:43:18;;;;;;;1.17;1.08;;;;;;;;;;6149503;23;20086;-63
2021/08/24 14:45:51;;;;;;;0.70;0.70;;;;;;;;;;6149705;23;20060;-63
2021/08/24 14:48:18;;;;;;;0.70;0.70;;;;;;;;;;6149132;23;20001;-63
2021/08/24 14:50:44;;;;;;;0.73;0.60;;;;;;;;;;6149817;23;20017;-63
2021/08/24 14:53:20;;;;;;;0.80;0.80;;;;;;;;;;6149766;23;20390;-63
2021/08/24 14:56:01;;;;;;;0.70;0.70;;;;;;;;;;6148632;23;20002;-63
2021/08/24 14:58:27;;;;;;;0.90;0.80;;;;;;;;;;6149166;23;20009;-63